Time;durP1;ratioP1;P1;durP2;ratioP2;P2;SDS_P1;SDS_P2;PMS_P1;PMS_P2;Temp;Humidity;BMP_temperature;BMP_pressure;BME280_temperature;BME280_humidity;BME280_pressure;Samples;Min_cycle;Max_cycle;Signal;HPM_P1;HPM_P2
2022/01/01 00:01:21;;;;;;;;;;;4.50;99.90;;;;;;5053516;28;19909;-73
2022/01/01 00:03:47;;;;;;;;;;;4.60;99.90;;;;;;5054224;28;19960;-73
2022/01/01 00:06:12;;;;;;;;;;;4.60;99.90;;;;;;5051039;28;19908;-72
2022/01/01 00:08:38;;;;;;;;;;;4.70;99.90;;;;;;5065862;28;19962;-72
2022/01/01 00:11:03;;;;;;;;;;;4.70;99.90;;;;;;5070776;28;19915;-72
2022/01/01 00:13:29;;;;;;;;;;;4.70;99.90;;;;;;5056265;28;19956;-73
2022/01/01 00:15:54;;;;;;;;;;;4.70;99.90;;;;;;5051093;28;19970;-73
2022/01/01 00:18:20;;;;;;;;;;;4.80;99.90;;;;;;5063442;28;19919;-72
2022/01/01 00:20:45;;;;;;;;;;;4.80;99.90;;;;;;5053262;28;19951;-72
2022/01/01 00:23:11;;;;;;;;;;;4.80;99.90;;;;;;5070586;28;20300;-72
2022/01/01 00:25:36;;;;;;;;;;;4.80;99.90;;;;;;5053087;28;19912;-73
2022/01/01 00:28:02;;;;;;;;;;;4.80;99.90;;;;;;5052069;28;19908;-73
2022/01/01 00:30:28;;;;;;;;;;;4.80;99.90;;;;;;5070187;28;20351;-73
2022/01/01 00:32:53;;;;;;;;;;;4.80;99.90;;;;;;5070766;28;19915;-73
2022/01/01 00:35:19;;;;;;;;;;;4.80;99.90;;;;;;5052473;28;20412;-71
2022/01/01 00:37:44;;;;;;;;;;;4.90;99.90;;;;;;5070117;28;20280;-72
2022/01/01 00:40:10;;;;;;;;;;;4.90;99.90;;;;;;5070576;28;20413;-72
2022/01/01 00:42:36;;;;;;;;;;;4.90;99.90;;;;;;5070310;28;19921;-72
2022/01/01 00:45:01;;;;;;;;;;;4.90;99.90;;;;;;5070834;28;19950;-72
2022/01/01 00:47:27;;;;;;;;;;;4.90;99.90;;;;;;5063958;28;19908;-72
2022/01/01 00:49:52;;;;;;;;;;;5.00;99.90;;;;;;5050294;28;19915;-72
2022/01/01 00:52:18;;;;;;;;;;;4.90;99.90;;;;;;5036563;28;19912;-72
2022/01/01 00:54:43;;;;;;;;;;;5.00;99.90;;;;;;5070352;28;19977;-73
2022/01/01 00:57:09;;;;;;;;;;;3.40;99.90;;;;;;5069576;28;19936;-72
2022/01/01 00:59:35;;;;;;;;;;;5.00;99.90;;;;;;5070112;28;19955;-72
2022/01/01 01:02:00;;;;;;;;;;;5.00;99.90;;;;;;5051800;28;19940;-72
2022/01/01 01:04:26;;;;;;;;;;;5.00;99.90;;;;;;5052145;28;19908;-73
2022/01/01 01:06:52;;;;;;;;;;;5.00;99.90;;;;;;5035036;28;19928;-71
2022/01/01 01:09:17;;;;;;;;;;;5.00;99.90;;;;;;5069887;28;20338;-71
2022/01/01 01:11:46;;;;;;;;;;;5.10;99.90;;;;;;5051859;28;19908;-71
2022/01/01 01:14:19;;;;;;;;;;;5.10;99.90;;;;;;5049924;28;20313;-72
2022/01/01 01:16:46;;;;;;;;;;;5.10;99.90;;;;;;5049723;28;19909;-72
2022/01/01 01:19:12;;;;;;;;;;;5.10;99.90;;;;;;5069931;28;19987;-72
2022/01/01 01:21:37;;;;;;;;;;;5.10;99.90;;;;;;5070178;28;20011;-72
2022/01/01 01:24:03;;;;;;;;;;;5.20;99.90;;;;;;5069420;28;19908;-72
2022/01/01 01:26:29;;;;;;;;;;;5.20;99.90;;;;;;5069985;28;19943;-72
2022/01/01 01:28:56;;;;;;;;;;;5.20;99.90;;;;;;5069420;28;20312;-71
2022/01/01 01:31:24;;;;;;;;;;;5.30;99.90;;;;;;5069855;28;19913;-72
2022/01/01 01:33:49;;;;;;;;;;;5.30;99.90;;;;;;5069338;28;19912;-71
2022/01/01 01:36:15;;;;;;;;;;;5.30;99.90;;;;;;5070228;28;20276;-72
2022/01/01 01:38:41;;;;;;;;;;;5.30;99.90;;;;;;5062743;28;19963;-73
2022/01/01 01:41:07;;;;;;;;;;;5.30;99.90;;;;;;5060879;28;20346;-72
2022/01/01 01:43:33;;;;;;;;;;;5.40;99.90;;;;;;5051708;28;19904;-72
2022/01/01 01:46:04;;;;;;;;;;;5.40;99.90;;;;;;5069908;28;19908;-71
2022/01/01 01:48:31;;;;;;;;;;;5.40;99.90;;;;;;5069062;28;19912;-71
2022/01/01 01:50:57;;;;;;;;;;;5.40;99.90;;;;;;5070292;28;19908;-72
2022/01/01 01:53:23;;;;;;;;;;;5.40;99.90;;;;;;5051562;28;19962;-72
2022/01/01 01:55:49;;;;;;;;;;;5.50;99.90;;;;;;5069473;28;20299;-71
2022/01/01 01:58:15;;;;;;;;;;;5.50;99.90;;;;;;5068165;28;19962;-74
2022/01/01 02:01:01;;;;;;;;;;;5.50;99.90;;;;;;5070188;28;19962;-73
2022/01/01 02:03:26;;;;;;;;;;;5.50;99.90;;;;;;5069306;28;19977;-71
2022/01/01 02:05:52;;;;;;;;;;;5.60;99.90;;;;;;5069887;28;19916;-73
2022/01/01 02:08:19;;;;;;;;;;;5.60;99.90;;;;;;5050878;28;19912;-72
2022/01/01 02:10:48;;;;;;;;;;;5.60;99.90;;;;;;5051480;28;20360;-72
2022/01/01 02:13:19;;;;;;;;;;;5.60;99.90;;;;;;5056779;28;19908;-72
2022/01/01 02:18:10;;;;;;;;;;;5.60;99.90;;;;;;5060440;28;19913;-72
2022/01/01 02:20:35;;;;;;;;;;;5.70;99.90;;;;;;5051112;28;19940;-71
2022/01/01 02:23:01;;;;;;;;;;;5.70;99.90;;;;;;5069298;28;19912;-71
2022/01/01 02:25:27;;;;;;;;;;;5.70;99.90;;;;;;5069567;28;19908;-71
2022/01/01 02:27:53;;;;;;;;;;;5.80;99.90;;;;;;5069035;28;19912;-71
2022/01/01 02:30:19;;;;;;;;;;;5.80;99.90;;;;;;5051153;28;20348;-71
2022/01/01 02:32:45;;;;;;;;;;;5.80;99.90;;;;;;5051144;28;19952;-71
2022/01/01 02:35:12;;;;;;;;;;;5.90;99.90;;;;;;5071863;28;19955;-71
2022/01/01 02:37:38;;;;;;;;;;;5.90;99.90;;;;;;5054790;28;19909;-72
2022/01/01 02:40:04;;;;;;;;;;;6.00;99.90;;;;;;5054690;28;20363;-72
2022/01/01 02:42:30;;;;;;;;;;;6.00;99.90;;;;;;5051295;28;19927;-73
2022/01/01 02:44:57;;;;;;;;;;;6.00;99.90;;;;;;5052979;28;19909;-72
2022/01/01 02:47:23;;;;;;;;;;;6.00;99.90;;;;;;5052697;28;19915;-72
2022/01/01 02:49:49;;;;;;;;;;;6.10;99.90;;;;;;5052383;28;19908;-71
2022/01/01 02:52:14;;;;;;;;;;;6.10;99.90;;;;;;5052664;28;19920;-73
2022/01/01 02:54:40;;;;;;;;;;;6.20;99.90;;;;;;5051634;28;19999;-71
2022/01/01 02:57:05;;;;;;;;;;;6.20;99.90;;;;;;5052652;28;19917;-72
2022/01/01 02:59:31;;;;;;;;;;;6.30;99.90;;;;;;5052319;28;19908;-71
2022/01/01 03:01:56;;;;;;;;;;;6.30;99.90;;;;;;5052432;28;19909;-73
2022/01/01 03:04:22;;;;;;;;;;;6.30;99.90;;;;;;5051327;28;19991;-72
2022/01/01 03:06:53;;;;;;;;;;;6.40;99.90;;;;;;5051153;28;19913;-71
2022/01/01 03:09:19;;;;;;;;;;;6.40;99.90;;;;;;5051899;28;19916;-71
2022/01/01 03:11:45;;;;;;;;;;;6.40;99.90;;;;;;5052437;28;19912;-71
2022/01/01 03:14:12;;;;;;;;;;;6.40;99.90;;;;;;5032406;28;19917;-73
2022/01/01 03:16:38;;;;;;;;;;;6.50;99.90;;;;;;5031152;28;19910;-72
2022/01/01 03:19:03;;;;;;;;;;;6.50;99.90;;;;;;5050676;28;19908;-73
2022/01/01 03:21:29;;;;;;;;;;;6.60;99.90;;;;;;5052490;28;19931;-71
2022/01/01 03:23:55;;;;;;;;;;;6.70;99.90;;;;;;5034367;28;19905;-73
2022/01/01 03:26:20;;;;;;;;;;;6.80;99.90;;;;;;5032971;28;19913;-72
2022/01/01 03:28:46;;;;;;;;;;;6.80;99.90;;;;;;5048611;28;19909;-71
2022/01/01 03:31:11;;;;;;;;;;;6.80;99.90;;;;;;5052138;28;19908;-71
2022/01/01 03:33:37;;;;;;;;;;;6.90;99.90;;;;;;5051467;28;19904;-71
2022/01/01 03:36:03;;;;;;;;;;;6.90;99.90;;;;;;5052414;28;19912;-72
2022/01/01 03:38:29;;;;;;;;;;;6.90;99.90;;;;;;5049898;28;20090;-70
2022/01/01 03:40:55;;;;;;;;;;;6.90;99.90;;;;;;5056947;28;19919;-73
2022/01/01 03:43:20;;;;;;;;;;;7.00;99.90;;;;;;5058289;28;19916;-71
2022/01/01 03:45:46;;;;;;;;;;;7.00;99.90;;;;;;5051069;28;20026;-71
2022/01/01 03:48:12;;;;;;;;;;;7.00;99.90;;;;;;5063230;28;19915;-71
2022/01/01 03:50:37;;;;;;;;;;;7.10;99.90;;;;;;5071692;28;20174;-72
2022/01/01 03:53:03;;;;;;;;;;;7.10;99.90;;;;;;5060786;28;19908;-72
2022/01/01 03:55:29;;;;;;;;;;;7.10;99.90;;;;;;5033888;28;20292;-73
2022/01/01 03:57:54;;;;;;;;;;;7.20;99.90;;;;;;5042899;28;19934;-71
2022/01/01 04:00:20;;;;;;;;;;;7.30;99.90;;;;;;5071093;28;20008;-71
2022/01/01 04:02:45;;;;;;;;;;;7.30;99.90;;;;;;5070974;28;19966;-71
2022/01/01 04:05:11;;;;;;;;;;;7.30;99.90;;;;;;5053252;28;20018;-71
2022/01/01 04:07:37;;;;;;;;;;;7.20;99.90;;;;;;5053109;28;20383;-71
2022/01/01 04:10:03;;;;;;;;;;;7.20;99.90;;;;;;5052237;28;19909;-71
2022/01/01 04:12:28;;;;;;;;;;;7.20;99.90;;;;;;5070702;28;19912;-72
2022/01/01 04:14:54;;;;;;;;;;;7.30;99.90;;;;;;5052834;28;19919;-71
2022/01/01 04:17:20;;;;;;;;;;;7.30;99.90;;;;;;5047665;28;20384;-72
2022/01/01 04:19:45;;;;;;;;;;;7.30;99.90;;;;;;5050597;28;19936;-71
2022/01/01 04:22:12;;;;;;;;;;;7.40;99.90;;;;;;5036004;28;19918;-72
2022/01/01 04:24:38;;;;;;;;;;;7.30;99.90;;;;;;5071062;28;20324;-72
2022/01/01 04:27:04;;;;;;;;;;;7.30;99.90;;;;;;5052626;28;19967;-72
2022/01/01 04:29:30;;;;;;;;;;;7.30;99.90;;;;;;5070264;28;19943;-71
2022/01/01 04:31:56;;;;;;;;;;;7.20;99.90;;;;;;5052083;28;20385;-72
2022/01/01 04:34:22;;;;;;;;;;;7.30;99.90;;;;;;5052465;28;19919;-72
2022/01/01 04:36:53;;;;;;;;;;;7.40;99.90;;;;;;5052195;28;20049;-72
2022/01/01 04:39:18;;;;;;;;;;;7.40;99.90;;;;;;5069887;28;20249;-72
2022/01/01 04:41:44;;;;;;;;;;;7.40;99.90;;;;;;5052252;28;19973;-71
2022/01/01 04:44:09;;;;;;;;;;;7.30;99.90;;;;;;5069969;28;20292;-72
2022/01/01 04:46:35;;;;;;;;;;;7.20;99.90;;;;;;5052496;28;19931;-72
2022/01/01 04:49:01;;;;;;;;;;;7.20;99.90;;;;;;5069639;28;19988;-73
2022/01/01 04:51:26;;;;;;;;;;;7.10;99.90;;;;;;5070368;28;19923;-72
2022/01/01 04:53:58;;;;;;;;;;;7.10;99.90;;;;;;5070236;28;19931;-73
2022/01/01 04:56:24;;;;;;;;;;;7.10;99.90;;;;;;5070417;28;19908;-72
2022/01/01 04:58:49;;;;;;;;;;;7.10;99.90;;;;;;5069055;28;19908;-73
2022/01/01 05:01:15;;;;;;;;;;;7.10;99.90;;;;;;5070135;28;19999;-73
2022/01/01 05:03:41;;;;;;;;;;;7.10;99.90;;;;;;5069997;28;19908;-73
2022/01/01 05:06:06;;;;;;;;;;;7.00;99.90;;;;;;5070407;28;19912;-71
2022/01/01 05:08:32;;;;;;;;;;;7.00;99.90;;;;;;5069491;28;20411;-72
2022/01/01 05:10:58;;;;;;;;;;;7.00;99.90;;;;;;5070757;28;19912;-72
2022/01/01 05:13:23;;;;;;;;;;;7.00;99.90;;;;;;5070077;28;20387;-72
2022/01/01 05:15:51;;;;;;;;;;;7.00;99.90;;;;;;5052108;28;19912;-72
2022/01/01 05:18:16;;;;;;;;;;;7.00;99.90;;;;;;5069365;28;19908;-72
2022/01/01 05:20:42;;;;;;;;;;;7.10;99.90;;;;;;5070328;28;19977;-72
2022/01/01 05:23:07;;;;;;;;;;;7.00;99.90;;;;;;5069787;28;19913;-72
2022/01/01 05:25:33;;;;;;;;;;;7.00;99.90;;;;;;5052052;28;19962;-72
2022/01/01 05:27:59;;;;;;;;;;;7.00;99.90;;;;;;5069798;28;20049;-72
2022/01/01 05:30:24;;;;;;;;;;;7.00;99.90;;;;;;5051507;28;19940;-72
2022/01/01 05:32:50;;;;;;;;;;;7.00;99.90;;;;;;5069921;28;20279;-72
2022/01/01 05:35:15;;;;;;;;;;;7.00;99.90;;;;;;5052077;28;19922;-72
2022/01/01 05:37:41;;;;;;;;;;;7.00;99.90;;;;;;5069736;28;19924;-72
2022/01/01 05:40:07;;;;;;;;;;;6.90;99.90;;;;;;5051239;28;20034;-72
2022/01/01 05:42:32;;;;;;;;;;;7.00;99.90;;;;;;5069381;28;20372;-72
2022/01/01 05:44:58;;;;;;;;;;;7.00;99.90;;;;;;5070069;28;19908;-73
2022/01/01 05:47:23;;;;;;;;;;;6.90;99.90;;;;;;5069270;28;20009;-72
2022/01/01 05:49:49;;;;;;;;;;;6.90;99.90;;;;;;5069661;28;19908;-72
2022/01/01 05:52:15;;;;;;;;;;;6.90;99.90;;;;;;5051196;28;20418;-72
2022/01/01 05:54:40;;;;;;;;;;;6.90;99.90;;;;;;5069953;28;19952;-72
2022/01/01 05:57:06;;;;;;;;;;;6.80;99.90;;;;;;5069436;28;19916;-73
2022/01/01 05:59:31;;;;;;;;;;;6.80;99.90;;;;;;5069603;28;19951;-72
2022/01/01 06:01:57;;;;;;;;;;;6.80;99.90;;;;;;5051191;28;20324;-72
2022/01/01 06:04:23;;;;;;;;;;;6.80;99.90;;;;;;5069695;28;19913;-72
2022/01/01 06:06:48;;;;;;;;;;;6.80;99.90;;;;;;5069344;28;19908;-73
2022/01/01 06:09:14;;;;;;;;;;;6.70;99.90;;;;;;5070187;28;19915;-72
2022/01/01 06:11:39;;;;;;;;;;;6.70;99.90;;;;;;5073323;28;19954;-72
2022/01/01 06:14:05;;;;;;;;;;;6.70;99.90;;;;;;5072980;28;20383;-72
2022/01/01 06:16:30;;;;;;;;;;;6.60;99.90;;;;;;5073690;28;19966;-73
2022/01/01 06:18:56;;;;;;;;;;;6.60;99.90;;;;;;5054660;28;20136;-73
2022/01/01 06:21:22;;;;;;;;;;;6.60;99.90;;;;;;5055331;28;19920;-73
2022/01/01 06:23:47;;;;;;;;;;;6.60;99.90;;;;;;5072848;28;20002;-74
2022/01/01 06:26:15;;;;;;;;;;;6.60;99.90;;;;;;5055005;28;19915;-73
2022/01/01 06:28:41;;;;;;;;;;;6.60;99.90;;;;;;5072745;28;19908;-73
2022/01/01 06:31:06;;;;;;;;;;;6.60;99.90;;;;;;5073193;28;20276;-73
2022/01/01 06:33:32;;;;;;;;;;;6.50;99.90;;;;;;5072878;28;19904;-73
2022/01/01 06:35:57;;;;;;;;;;;6.60;99.90;;;;;;5055044;28;19916;-73
2022/01/01 06:38:23;;;;;;;;;;;6.60;99.90;;;;;;5072524;28;19908;-72
2022/01/01 06:40:49;;;;;;;;;;;6.60;99.90;;;;;;5072863;28;19912;-73
2022/01/01 06:43:16;;;;;;;;;;;6.60;99.90;;;;;;5072666;28;20423;-73
2022/01/01 06:45:42;;;;;;;;;;;6.60;99.90;;;;;;5054512;28;19999;-73
2022/01/01 06:48:07;;;;;;;;;;;6.60;99.90;;;;;;5054630;28;19919;-74
2022/01/01 06:50:37;;;;;;;;;;;6.60;99.90;;;;;;5072802;28;19920;-74
2022/01/01 06:53:02;;;;;;;;;;;6.60;99.90;;;;;;5072812;28;19948;-73
2022/01/01 06:55:28;;;;;;;;;;;6.50;99.90;;;;;;5054488;28;19954;-73
2022/01/01 06:57:54;;;;;;;;;;;6.60;99.90;;;;;;5054604;28;20410;-73
2022/01/01 07:00:19;;;;;;;;;;;6.60;99.90;;;;;;5072221;28;20351;-73
2022/01/01 07:02:45;;;;;;;;;;;6.50;99.90;;;;;;5072747;28;19909;-73
2022/01/01 07:05:12;;;;;;;;;;;6.50;99.90;;;;;;5054540;28;19912;-73
2022/01/01 07:07:37;;;;;;;;;;;6.50;99.90;;;;;;5072941;28;19999;-73
2022/01/01 07:10:04;;;;;;;;;;;6.50;99.90;;;;;;5054418;28;20432;-73
2022/01/01 07:12:30;;;;;;;;;;;6.50;99.90;;;;;;5065948;28;20003;-73
2022/01/01 07:14:55;;;;;;;;;;;6.50;99.90;;;;;;5034638;28;20008;-73
2022/01/01 07:17:21;;;;;;;;;;;6.40;99.90;;;;;;5057035;28;19916;-72
2022/01/01 07:19:47;;;;;;;;;;;6.40;99.90;;;;;;5071652;28;20003;-72
2022/01/01 07:22:12;;;;;;;;;;;6.50;99.90;;;;;;5054215;28;20279;-74
2022/01/01 07:24:38;;;;;;;;;;;6.40;99.90;;;;;;5071893;28;19908;-74
2022/01/01 07:27:03;;;;;;;;;;;6.40;99.90;;;;;;5054097;28;19908;-73
2022/01/01 07:29:29;;;;;;;;;;;6.40;99.90;;;;;;5072130;28;19908;-74
2022/01/01 07:31:54;;;;;;;;;;;6.40;99.90;;;;;;5053912;28;20268;-73
2022/01/01 07:34:20;;;;;;;;;;;6.40;99.90;;;;;;5071369;28;19944;-73
2022/01/01 07:36:46;;;;;;;;;;;6.40;99.90;;;;;;5071982;28;19916;-73
2022/01/01 07:39:12;;;;;;;;;;;6.40;99.90;;;;;;5071411;28;19916;-72
2022/01/01 07:41:37;;;;;;;;;;;6.40;99.90;;;;;;5071725;28;20272;-74
2022/01/01 07:44:03;;;;;;;;;;;6.40;99.90;;;;;;5071280;28;19912;-74
2022/01/01 07:46:29;;;;;;;;;;;6.40;99.90;;;;;;5071858;28;19985;-73
2022/01/01 07:48:54;;;;;;;;;;;6.40;99.90;;;;;;5071655;28;19913;-73
2022/01/01 07:51:20;;;;;;;;;;;6.40;99.90;;;;;;5071848;28;19904;-74
2022/01/01 07:53:46;;;;;;;;;;;6.40;99.90;;;;;;5071138;28;20322;-74
2022/01/01 07:56:11;;;;;;;;;;;6.40;99.90;;;;;;5071634;28;19962;-72
2022/01/01 07:58:37;;;;;;;;;;;6.40;99.90;;;;;;5070920;28;19919;-73
2022/01/01 08:01:02;;;;;;;;;;;6.40;99.90;;;;;;5071317;28;19904;-72
2022/01/01 08:03:28;;;;;;;;;;;6.40;99.90;;;;;;5070879;28;20349;-73
2022/01/01 08:05:54;;;;;;;;;;;6.40;99.90;;;;;;5071278;28;19908;-75
2022/01/01 08:08:20;;;;;;;;;;;6.40;99.90;;;;;;5070717;28;20286;-73
2022/01/01 08:10:46;;;;;;;;;;;6.40;99.90;;;;;;5052823;28;19999;-74
2022/01/01 08:13:12;;;;;;;;;;;6.40;99.90;;;;;;5070653;28;19912;-73
2022/01/01 08:15:37;;;;;;;;;;;6.40;99.90;;;;;;5071622;28;19908;-73
2022/01/01 08:18:03;;;;;;;;;;;6.40;99.90;;;;;;5052889;28;20256;-74
2022/01/01 08:20:29;;;;;;;;;;;6.40;99.90;;;;;;5070929;28;20288;-73
2022/01/01 08:22:54;;;;;;;;;;;6.40;99.90;;;;;;5071094;28;20006;-74
2022/01/01 08:25:21;;;;;;;;;;;6.40;99.90;;;;;;5070705;28;19924;-73
2022/01/01 08:27:47;;;;;;;;;;;6.50;99.90;;;;;;5071103;28;19991;-73
2022/01/01 08:30:14;;;;;;;;;;;6.40;99.90;;;;;;5052213;28;20003;-72
2022/01/01 08:32:40;;;;;;;;;;;6.50;99.90;;;;;;5062700;28;19916;-75
2022/01/01 08:35:06;;;;;;;;;;;6.50;99.90;;;;;;5032700;28;19920;-73
2022/01/01 08:37:31;;;;;;;;;;;6.40;99.90;;;;;;5057146;28;19908;-73
2022/01/01 08:39:57;;;;;;;;;;;6.50;99.90;;;;;;5070172;28;19919;-74
2022/01/01 08:42:24;;;;;;;;;;;6.40;99.90;;;;;;5070100;28;19916;-72
2022/01/01 08:44:50;;;;;;;;;;;6.40;99.90;;;;;;5070617;28;19915;-73
2022/01/01 08:47:16;;;;;;;;;;;6.40;99.90;;;;;;5052138;28;19994;-73
2022/01/01 08:49:41;;;;;;;;;;;6.40;99.90;;;;;;5052099;28;20412;-74
2022/01/01 08:52:11;;;;;;;;;;;6.40;99.90;;;;;;5070398;28;19916;-74
2022/01/01 08:54:37;;;;;;;;;;;6.40;99.90;;;;;;5070599;28;20015;-74
2022/01/01 08:57:03;;;;;;;;;;;6.40;99.90;;;;;;5070464;28;19999;-74
2022/01/01 08:59:28;;;;;;;;;;;6.40;99.90;;;;;;5052030;28;19976;-73
2022/01/01 09:01:54;;;;;;;;;;;6.40;99.90;;;;;;5070205;28;19954;-72
2022/01/01 09:04:19;;;;;;;;;;;6.40;99.90;;;;;;5069881;28;19977;-73
2022/01/01 09:06:45;;;;;;;;;;;6.50;99.90;;;;;;5070304;28;19908;-73
2022/01/01 09:09:11;;;;;;;;;;;6.50;99.90;;;;;;5051492;28;19916;-73
2022/01/01 09:11:36;;;;;;;;;;;6.50;99.90;;;;;;5070296;28;19912;-74
2022/01/01 09:14:02;;;;;;;;;;;6.60;99.90;;;;;;5032958;28;20408;-74
2022/01/01 09:16:30;;;;;;;;;;;6.60;99.90;;;;;;5032131;28;20268;-74
2022/01/01 09:18:56;;;;;;;;;;;6.60;99.90;;;;;;5067547;28;20286;-74
2022/01/01 09:21:21;;;;;;;;;;;6.50;99.90;;;;;;5070334;28;19958;-74
2022/01/01 09:23:47;;;;;;;;;;;6.50;99.90;;;;;;5070269;28;19912;-74
2022/01/01 09:26:13;;;;;;;;;;;6.40;99.90;;;;;;5070250;28;19920;-73
2022/01/01 09:28:39;;;;;;;;;;;6.40;99.90;;;;;;5069188;28;19912;-74
2022/01/01 09:31:05;;;;;;;;;;;6.50;99.90;;;;;;5070228;28;19942;-73
2022/01/01 09:33:31;;;;;;;;;;;6.50;99.90;;;;;;5069880;28;19947;-74
2022/01/01 09:35:57;;;;;;;;;;;6.50;99.90;;;;;;5051606;28;20416;-73
2022/01/01 09:38:23;;;;;;;;;;;6.50;99.90;;;;;;5051039;28;19923;-73
2022/01/01 09:40:51;;;;;;;;;;;6.50;99.90;;;;;;5070027;28;19963;-73
2022/01/01 09:43:18;;;;;;;;;;;6.50;99.90;;;;;;5039949;28;20332;-73
2022/01/01 09:45:44;;;;;;;;;;;6.50;99.90;;;;;;5053985;28;19939;-74
2022/01/01 09:48:09;;;;;;;;;;;6.60;99.90;;;;;;5046796;28;19913;-73
2022/01/01 09:50:35;;;;;;;;;;;6.60;99.90;;;;;;5073904;28;19908;-73
2022/01/01 09:53:01;;;;;;;;;;;6.60;99.90;;;;;;5055990;28;19909;-73
2022/01/01 09:55:27;;;;;;;;;;;6.60;99.90;;;;;;5073612;28;19927;-73
2022/01/01 09:57:52;;;;;;;;;;;6.60;99.90;;;;;;5073817;28;20438;-73
2022/01/01 10:00:18;;;;;;;;;;;6.60;99.90;;;;;;5055400;28;19936;-73
2022/01/01 10:02:44;;;;;;;;;;;7.80;99.90;;;;;;5055503;28;19999;-72
2022/01/01 10:05:09;;;;;;;;;;;6.60;99.90;;;;;;5073506;28;20250;-74
2022/01/01 10:07:36;;;;;;;;;;;6.60;99.90;;;;;;5055241;28;19912;-73
2022/01/01 10:10:15;;;;;;;;;;;6.50;99.90;;;;;;5073080;28;19924;-74
2022/01/01 10:12:43;;;;;;;;;;;6.50;99.90;;;;;;5073745;28;20021;-73
2022/01/01 10:15:10;;;;;;;;;;;6.50;99.90;;;;;;5073178;28;19916;-73
2022/01/01 10:17:36;;;;;;;;;;;6.60;99.90;;;;;;5073042;28;19904;-74
2022/01/01 10:20:02;;;;;;;;;;;6.50;99.90;;;;;;5072994;28;20034;-73
2022/01/01 10:22:29;;;;;;;;;;;6.50;99.90;;;;;;5073226;28;20013;-73
2022/01/01 10:27:52;;;;;;;;;;;6.50;99.90;;;;;;5073162;28;19915;-73
2022/01/01 10:30:40;;;;;;;;;;;6.50;99.90;;;;;;5054603;28;20330;-73
2022/01/01 10:33:07;;;;;;;;;;;6.50;99.90;;;;;;5054890;28;19908;-75
2022/01/01 10:35:34;;;;;;;;;;;6.60;99.90;;;;;;5072560;28;20277;-73
2022/01/01 10:38:02;;;;;;;;;;;6.70;99.90;;;;;;5072562;28;19939;-73
2022/01/01 10:40:28;;;;;;;;;;;6.70;99.90;;;;;;5053894;28;19912;-74
2022/01/01 10:42:53;;;;;;;;;;;6.70;99.90;;;;;;5073002;28;20449;-74
2022/01/01 10:45:33;;;;;;;;;;;6.70;99.90;;;;;;5070394;28;19913;-74
2022/01/01 10:48:04;;;;;;;;;;;6.70;99.90;;;;;;5054618;28;19919;-74
2022/01/01 10:50:34;;;;;;;;;;;6.60;99.90;;;;;;5071863;28;20321;-74
2022/01/01 10:53:13;;;;;;;;;;;6.60;99.90;;;;;;5073181;28;19916;-74
2022/01/01 10:55:42;;;;;;;;;;;6.60;99.90;;;;;;5071693;28;19912;-73
2022/01/01 10:58:08;;;;;;;;;;;6.60;99.90;;;;;;5054298;28;19912;-74
2022/01/01 11:00:39;;;;;;;;;;;6.60;99.90;;;;;;5054008;28;20008;-73
2022/01/01 11:03:07;;;;;;;;;;;6.60;99.90;;;;;;5072915;28;20353;-74
2022/01/01 11:05:34;;;;;;;;;;;6.60;99.90;;;;;;5050067;28;19909;-73
2022/01/01 11:08:01;;;;;;;;;;;6.60;99.90;;;;;;5052720;28;19913;-74
2022/01/01 11:10:27;;;;;;;;;;;6.60;99.90;;;;;;5054637;28;19908;-74
2022/01/01 11:12:53;;;;;;;;;;;6.50;99.90;;;;;;5072837;28;19927;-74
2022/01/01 11:15:20;;;;;;;;;;;6.50;99.90;;;;;;5072085;28;19914;-74
2022/01/01 11:17:46;;;;;;;;;;;6.50;99.90;;;;;;5054223;28;19912;-74
2022/01/01 11:20:12;;;;;;;;;;;6.50;99.90;;;;;;5053742;28;19908;-74
2022/01/01 11:22:38;;;;;;;;;;;6.50;99.90;;;;;;5054442;28;19962;-74
2022/01/01 11:25:04;;;;;;;;;;;6.50;99.90;;;;;;5053957;28;19908;-73
2022/01/01 11:27:29;;;;;;;;;;;6.50;99.90;;;;;;5072215;28;20310;-74
2022/01/01 11:29:56;;;;;;;;;;;6.50;99.90;;;;;;5071797;28;19905;-73
2022/01/01 11:32:22;;;;;;;;;;;6.50;99.90;;;;;;5053587;28;19916;-74
2022/01/01 11:34:50;;;;;;;;;;;6.50;99.90;;;;;;5071997;28;19912;-74
2022/01/01 11:37:15;;;;;;;;;;;6.50;99.90;;;;;;5053536;28;20288;-74
2022/01/01 11:39:42;;;;;;;;;;;6.60;99.90;;;;;;5053466;28;19999;-73
2022/01/01 11:42:12;;;;;;;;;;;6.60;99.90;;;;;;5053357;28;19928;-72
2022/01/01 11:44:40;;;;;;;;;;;6.60;99.90;;;;;;5053037;28;20298;-73
2022/01/01 11:47:13;;;;;;;;;;;7.90;99.90;;;;;;5053276;28;20339;-73
2022/01/01 11:49:38;;;;;;;;;;;6.70;99.90;;;;;;5053510;28;19908;-73
2022/01/01 11:52:04;;;;;;;;;;;6.70;99.90;;;;;;5071664;28;19919;-73
2022/01/01 11:54:33;;;;;;;;;;;6.80;99.90;;;;;;5071608;28;20006;-73
2022/01/01 11:57:04;;;;;;;;;;;6.80;99.90;;;;;;5055880;28;19913;-72
2022/01/01 11:59:38;;;;;;;;;;;6.80;99.90;;;;;;5051119;28;19928;-73
2022/01/01 12:02:24;;;;;;;;;;;6.80;99.90;;;;;;5067318;28;19912;-74
2022/01/01 12:04:50;;;;;;;;;;;6.80;99.90;;;;;;5063982;28;20332;-74
2022/01/01 12:07:16;;;;;;;;;;;6.80;99.90;;;;;;5070285;28;20218;-74
2022/01/01 12:10:00;;;;;;;;;;;6.80;99.90;;;;;;5070868;28;20019;-74
2022/01/01 12:12:35;;;;;;;;;;;6.80;99.90;;;;;;5071002;28;19919;-74
2022/01/01 12:15:00;;;;;;;;;;;6.80;99.90;;;;;;5071018;28;19909;-74
2022/01/01 12:17:26;;;;;;;;;;;6.90;99.90;;;;;;5052676;28;19939;-75
2022/01/01 12:19:54;;;;;;;;;;;7.00;99.90;;;;;;5053104;28;19912;-74
2022/01/01 12:22:23;;;;;;;;;;;7.10;99.90;;;;;;5052815;28;19920;-74
2022/01/01 12:24:52;;;;;;;;;;;7.10;99.90;;;;;;5070882;28;19999;-74
2022/01/01 12:27:17;;;;;;;;;;;7.00;99.90;;;;;;5070792;28;20442;-74
2022/01/01 12:29:43;;;;;;;;;;;7.00;99.90;;;;;;5069927;28;19939;-74
2022/01/01 12:32:09;;;;;;;;;;;7.00;99.90;;;;;;5070523;28;19912;-74
2022/01/01 12:34:38;;;;;;;;;;;7.00;99.90;;;;;;5070688;28;19915;-74
2022/01/01 12:37:05;;;;;;;;;;;6.90;99.90;;;;;;5052253;28;19977;-74
2022/01/01 12:39:51;;;;;;;;;;;7.00;99.90;;;;;;5070234;28;20292;-74
2022/01/01 12:42:35;;;;;;;;;;;7.00;99.90;;;;;;5070257;28;20440;-74
2022/01/01 12:45:02;;;;;;;;;;;7.00;99.90;;;;;;5070777;28;20010;-74
2022/01/01 12:47:28;;;;;;;;;;;6.90;99.90;;;;;;5070697;28;20320;-74
2022/01/01 12:49:58;;;;;;;;;;;6.90;99.90;;;;;;5069920;28;20304;-74
2022/01/01 12:52:23;;;;;;;;;;;6.90;99.90;;;;;;5070366;28;19916;-73
2022/01/01 12:54:49;;;;;;;;;;;6.80;99.90;;;;;;5070556;28;20415;-72
2022/01/01 12:57:18;;;;;;;;;;;6.80;99.90;;;;;;5070391;28;20340;-73
2022/01/01 12:59:47;;;;;;;;;;;6.80;99.90;;;;;;5051773;28;20283;-74
2022/01/01 13:02:13;;;;;;;;;;;6.70;99.90;;;;;;5051859;28;19912;-73
2022/01/01 13:04:39;;;;;;;;;;;6.70;99.90;;;;;;5052069;28;19911;-74
2022/01/01 13:07:05;;;;;;;;;;;6.70;99.90;;;;;;5070474;28;19913;-73
2022/01/01 13:09:31;;;;;;;;;;;6.70;99.90;;;;;;5069560;28;19950;-74
2022/01/01 13:12:07;;;;;;;;;;;6.70;99.90;;;;;;5051872;28;19916;-74
2022/01/01 13:14:33;;;;;;;;;;;6.70;99.90;;;;;;5070429;28;19918;-74
2022/01/01 13:17:01;;;;;;;;;;;6.70;99.90;;;;;;5070163;28;19958;-74
2022/01/01 13:19:27;;;;;;;;;;;6.70;99.90;;;;;;5069102;28;19951;-73
2022/01/01 13:21:53;;;;;;;;;;;6.80;99.90;;;;;;5070156;28;19963;-74
2022/01/01 13:24:19;;;;;;;;;;;6.80;99.90;;;;;;5070162;28;20323;-74
2022/01/01 13:26:44;;;;;;;;;;;6.70;99.90;;;;;;5051781;28;19951;-74
2022/01/01 13:29:10;;;;;;;;;;;6.70;99.90;;;;;;5069882;28;19904;-74
2022/01/01 13:31:36;;;;;;;;;;;6.70;99.90;;;;;;5070081;28;19916;-74
2022/01/01 13:34:02;;;;;;;;;;;6.70;99.90;;;;;;5051958;28;19908;-74
2022/01/01 13:36:30;;;;;;;;;;;6.60;99.90;;;;;;5069753;28;19927;-73
2022/01/01 13:38:56;;;;;;;;;;;6.60;99.90;;;;;;5051188;28;19904;-73
2022/01/01 13:41:22;;;;;;;;;;;6.50;99.90;;;;;;5069787;28;19928;-73
2022/01/01 13:43:47;;;;;;;;;;;6.50;99.90;;;;;;5052245;28;20234;-74
2022/01/01 13:46:16;;;;;;;;;;;6.50;99.90;;;;;;5069782;28;19917;-74
2022/01/01 13:48:44;;;;;;;;;;;6.60;99.90;;;;;;5069508;28;20031;-73
2022/01/01 13:51:11;;;;;;;;;;;6.60;99.90;;;;;;5069390;28;19920;-74
2022/01/01 13:53:36;;;;;;;;;;;6.60;99.90;;;;;;5051751;28;19904;-73
2022/01/01 13:56:06;;;;;;;;;;;6.60;99.90;;;;;;5069249;28;19916;-74
2022/01/01 13:58:37;;;;;;;;;;;6.60;99.90;;;;;;5051217;28;20332;-74
2022/01/01 14:01:03;;;;;;;;;;;6.60;99.90;;;;;;5069297;28;19920;-74
2022/01/01 14:03:29;;;;;;;;;;;6.50;99.90;;;;;;5051709;28;19904;-73
2022/01/01 14:05:54;;;;;;;;;;;6.50;99.90;;;;;;5069082;28;19908;-74
2022/01/01 14:08:21;;;;;;;;;;;6.50;99.90;;;;;;5069635;28;19919;-74
2022/01/01 14:10:54;;;;;;;;;;;6.50;99.90;;;;;;5050987;28;19912;-71
2022/01/01 14:13:36;;;;;;;;;;;6.50;99.90;;;;;;5069739;28;19904;-73
2022/01/01 14:16:14;;;;;;;;;;;6.40;99.90;;;;;;5069222;28;19948;-74
2022/01/01 14:18:40;;;;;;;;;;;6.40;99.90;;;;;;5069252;28;19956;-73
2022/01/01 14:21:07;;;;;;;;;;;6.40;99.90;;;;;;5069104;28;19913;-74
2022/01/01 14:23:34;;;;;;;;;;;6.40;99.90;;;;;;5069698;28;19995;-73
2022/01/01 14:26:13;;;;;;;;;;;6.40;99.90;;;;;;5050693;28;19908;-73
2022/01/01 14:28:39;;;;;;;;;;;6.40;99.90;;;;;;5051036;28;19911;-74
2022/01/01 14:31:06;;;;;;;;;;;6.30;99.90;;;;;;5053218;28;20354;-72
2022/01/01 14:33:33;;;;;;;;;;;6.30;99.90;;;;;;5072931;28;19908;-73